Terminal Aerodrome Forecast
Issued by NWS

Home | Current Version | Previous Version | Text Only | Print | Product List | Glossary On
Versions: 1 2 3 4 5 6 7 8 9 10 11 12 13 14 15 16 17 18 19 20 21 22 23
000
FTUS41 KBTV 181505 AAA
TAFMSS
TAF AMD
KMSS 181505Z 1815/1912 27012KT 5SM -SHSN BR SCT008 BKN015 OVC020
      TEMPO 1815/1818 2SM -SN BR OVC008
     FM181800 28010KT P6SM VCSH OVC015
     FM190600 27007KT P6SM OVC020=

USA.gov is the U.S. government's official web portal to all federal, state and local government web resources and services.